PWSweather.com
Personal Weather Stations
Station Observations
SANDHURSTWX
SandhurstGB

SandhurstGB

Lat: 51.3522, Lon: -0.7739

Elevation: 272.3

Station Type: Davis VP2

www.sandhurstweather.org.uk

High Low Average
Temperature 71.5°F21.9°C 55.7°F13.2°C 62.2°F16.8°C
Dew Point 63.7°F17.6°C 53.7°F12.1°C 58.4°F14.7°C
Winds 10.4 mph 16.7 kmh Calm Calm 4.0 mph SSE6.4 kmh SSE
Wind Gusts 15.0 mph24.1 kmh -- 6.0 mph9.7 kmh
Humidity 95% 75% 88%
Pressure 29.72 in1006.4 mb 29.60 in1002.4 mb -
Precipitation 0.29 in7.4 mm - -
Hour Temp Dew Point Humidity Winds Wind Gusts Pressure Precip Precip Rate Daily Precip Total
12:00 AM 62.6°F17.0°C 54.9°F12.7°C 76% 2.3 mph E3.7 kmh E 3.5 mph5.6 kmh 29.68 in1005.1 mb - 0.00 in0.0 mm 0.00 in0.0 mm
01:00 AM 62.7°F17.1°C 55.4°F13.0°C 77% 1.2 mph SE1.9 kmh SE 3.5 mph5.6 kmh 29.66 in1004.4 mb - 0.00 in0.0 mm 0.00 in0.0 mm
02:00 AM 63.4°F17.4°C 56.4°F13.6°C 78% Calm Calm 3.5 mph5.6 kmh 29.64 in1003.7 mb - 0.00 in0.0 mm 0.00 in0.0 mm
03:00 AM 63.1°F17.3°C 57.5°F14.2°C 82% Calm Calm 2.3 mph3.7 kmh 29.63 in1003.4 mb - 0.00 in0.0 mm 0.00 in0.0 mm
05:00 AM 63.9°F17.7°C 59.0°F15.0°C 84% 1.2 mph ESE1.9 kmh ESE 3.5 mph5.6 kmh 29.60 in1002.4 mb - 0.00 in0.0 mm 0.00 in0.0 mm
06:00 AM 63.0°F17.2°C 59.4°F15.2°C 88% 4.6 mph SSE7.4 kmh SSE 5.8 mph9.3 kmh 29.61 in1002.7 mb - 0.00 in0.0 mm 0.00 in0.0 mm
07:00 AM 63.2°F17.3°C 60.2°F15.7°C 90% 3.5 mph S5.6 kmh S 8.1 mph13.0 kmh 29.60 in1002.4 mb - 0.00 in0.0 mm 0.00 in0.0 mm
08:00 AM 66.1°F18.9°C 62.1°F16.7°C 87% 10.4 mph SSE16.7 kmh SSE 15.0 mph24.1 kmh 29.61 in1002.7 mb - 0.00 in0.0 mm 0.00 in0.0 mm
09:00 AM 69.4°F20.8°C 63.7°F17.6°C 82% 6.9 mph S11.1 kmh S 9.2 mph14.8 kmh 29.60 in1002.4 mb - 0.00 in0.0 mm 0.00 in0.0 mm
10:00 AM 71.5°F21.9°C 63.1°F17.3°C 75% 1.2 mph S1.9 kmh S 2.3 mph3.7 kmh 29.60 in1002.4 mb - 0.00 in0.0 mm 0.00 in0.0 mm
11:00 AM 62.4°F16.9°C 59.7°F15.4°C 91% 1.2 mph SSW1.9 kmh SSW 2.3 mph3.7 kmh 29.62 in1003.0 mb - 0.20 in5.1 mm 0.21 in5.3 mm
12:00 PM 62.2°F16.8°C 60.5°F15.8°C 94% Calm Calm -- 29.62 in1003.0 mb - 0.07 in1.8 mm 0.27 in6.9 mm
01:00 PM 63.3°F17.4°C 61.0°F16.1°C 92% 3.5 mph S5.6 kmh S 8.1 mph13.0 kmh 29.63 in1003.4 mb - 0.01 in0.3 mm 0.28 in7.1 mm
02:00 PM 61.4°F16.3°C 59.4°F15.2°C 93% 4.6 mph SSE7.4 kmh SSE 8.1 mph13.0 kmh 29.65 in1004.1 mb - 0.02 in0.5 mm 0.29 in7.4 mm
03:00 PM 62.2°F16.8°C 60.8°F16.0°C 95% 5.8 mph SSE9.3 kmh SSE 8.1 mph13.0 kmh 29.64 in1003.7 mb - 0.00 in0.0 mm 0.29 in7.4 mm
04:00 PM 62.3°F16.8°C 60.2°F15.7°C 93% 6.9 mph SSE11.1 kmh SSE 6.9 mph11.1 kmh 29.65 in1004.1 mb - 0.00 in0.0 mm 0.29 in7.4 mm
05:00 PM 62.2°F16.8°C 59.9°F15.5°C 92% 5.8 mph S9.3 kmh S 8.1 mph13.0 kmh 29.65 in1004.1 mb - 0.00 in0.0 mm 0.29 in7.4 mm
06:00 PM 60.5°F15.8°C 56.9°F13.8°C 88% 6.9 mph S11.1 kmh S 13.8 mph22.2 kmh 29.66 in1004.4 mb - 0.00 in0.0 mm 0.29 in7.4 mm
07:00 PM 58.7°F14.8°C 55.2°F12.9°C 88% 2.3 mph SSE3.7 kmh SSE 4.6 mph7.4 kmh 29.68 in1005.1 mb - 0.00 in0.0 mm 0.29 in7.4 mm
08:00 PM 57.6°F14.2°C 55.0°F12.8°C 91% 3.5 mph SSE5.6 kmh SSE 5.8 mph9.3 kmh 29.69 in1005.4 mb - 0.00 in0.0 mm 0.29 in7.4 mm
09:00 PM 56.6°F13.7°C 54.3°F12.4°C 92% 3.5 mph SSE5.6 kmh SSE 5.8 mph9.3 kmh 29.70 in1005.8 mb - 0.00 in0.0 mm 0.29 in7.4 mm
10:00 PM 55.7°F13.2°C 53.7°F12.1°C 93% 3.5 mph S5.6 kmh S 4.6 mph7.4 kmh 29.71 in1006.1 mb - 0.00 in0.0 mm 0.29 in7.4 mm
11:00 PM 56.4°F13.6°C 55.0°F12.8°C 95% 4.6 mph SSE7.4 kmh SSE 5.8 mph9.3 kmh 29.72 in1006.4 mb - 0.00 in0.0 mm 0.30 in7.6 mm